sensor_id;sensor_type;location;lat;lon;timestamp;P1;durP1;ratioP1;P2;durP2;ratioP2
49384;SDS011;36795;45.028;38.968;2023-02-18T00:02:34;4.43;;;1.65;;
49384;SDS011;36795;45.028;38.968;2023-02-18T00:05:21;10.00;;;2.42;;
49384;SDS011;36795;45.028;38.968;2023-02-18T00:08:07;4.60;;;1.70;;
49384;SDS011;36795;45.028;38.968;2023-02-18T00:10:53;6.15;;;2.05;;
49384;SDS011;36795;45.028;38.968;2023-02-18T00:13:39;5.57;;;2.03;;
49384;SDS011;36795;45.028;38.968;2023-02-18T00:16:26;7.18;;;1.77;;
49384;SDS011;36795;45.028;38.968;2023-02-18T00:19:14;7.53;;;1.90;;
49384;SDS011;36795;45.028;38.968;2023-02-18T00:22:01;5.10;;;1.67;;
49384;SDS011;36795;45.028;38.968;2023-02-18T00:24:47;9.25;;;1.90;;
49384;SDS011;36795;45.028;38.968;2023-02-18T00:27:33;8.73;;;1.87;;
49384;SDS011;36795;45.028;38.968;2023-02-18T00:30:20;5.10;;;1.65;;
49384;SDS011;36795;45.028;38.968;2023-02-18T00:33:07;3.72;;;1.80;;
49384;SDS011;36795;45.028;38.968;2023-02-18T00:35:59;5.55;;;1.73;;
49384;SDS011;36795;45.028;38.968;2023-02-18T00:38:56;7.55;;;1.90;;
49384;SDS011;36795;45.028;38.968;2023-02-18T00:41:42;10.05;;;2.42;;
49384;SDS011;36795;45.028;38.968;2023-02-18T00:44:29;10.93;;;2.45;;
49384;SDS011;36795;45.028;38.968;2023-02-18T00:47:15;11.05;;;2.30;;
49384;SDS011;36795;45.028;38.968;2023-02-18T00:50:02;13.30;;;2.42;;
49384;SDS011;36795;45.028;38.968;2023-02-18T00:52:48;10.38;;;2.58;;
49384;SDS011;36795;45.028;38.968;2023-02-18T00:55:41;8.27;;;2.30;;
49384;SDS011;36795;45.028;38.968;2023-02-18T00:58:27;6.20;;;1.92;;
49384;SDS011;36795;45.028;38.968;2023-02-18T01:01:14;8.05;;;2.17;;
49384;SDS011;36795;45.028;38.968;2023-02-18T01:04:00;8.77;;;2.22;;
49384;SDS011;36795;45.028;38.968;2023-02-18T01:06:47;6.25;;;2.10;;
49384;SDS011;36795;45.028;38.968;2023-02-18T01:09:33;10.00;;;2.62;;
49384;SDS011;36795;45.028;38.968;2023-02-18T01:12:20;6.07;;;1.58;;
49384;SDS011;36795;45.028;38.968;2023-02-18T01:15:10;3.90;;;1.40;;
49384;SDS011;36795;45.028;38.968;2023-02-18T01:17:59;9.13;;;2.50;;
49384;SDS011;36795;45.028;38.968;2023-02-18T01:20:45;12.35;;;2.60;;
49384;SDS011;36795;45.028;38.968;2023-02-18T01:23:33;11.88;;;2.50;;
49384;SDS011;36795;45.028;38.968;2023-02-18T01:26:19;10.43;;;2.50;;
49384;SDS011;36795;45.028;38.968;2023-02-18T01:29:06;13.25;;;2.55;;
49384;SDS011;36795;45.028;38.968;2023-02-18T01:31:52;9.98;;;2.28;;
49384;SDS011;36795;45.028;38.968;2023-02-18T01:34:39;11.40;;;2.08;;
49384;SDS011;36795;45.028;38.968;2023-02-18T01:37:24;6.40;;;1.98;;
49384;SDS011;36795;45.028;38.968;2023-02-18T01:40:12;8.55;;;2.12;;
49384;SDS011;36795;45.028;38.968;2023-02-18T01:42:58;13.30;;;2.53;;
49384;SDS011;36795;45.028;38.968;2023-02-18T01:51:39;7.68;;;2.20;;
49384;SDS011;36795;45.028;38.968;2023-02-18T01:54:33;7.50;;;2.10;;
49384;SDS011;36795;45.028;38.968;2023-02-18T01:57:22;7.90;;;2.00;;
49384;SDS011;36795;45.028;38.968;2023-02-18T02:00:12;7.47;;;2.00;;
49384;SDS011;36795;45.028;38.968;2023-02-18T02:02:59;11.48;;;2.40;;
49384;SDS011;36795;45.028;38.968;2023-02-18T02:05:46;8.63;;;2.20;;
49384;SDS011;36795;45.028;38.968;2023-02-18T02:08:33;8.02;;;2.40;;
49384;SDS011;36795;45.028;38.968;2023-02-18T02:11:30;10.45;;;2.72;;
49384;SDS011;36795;45.028;38.968;2023-02-18T02:17:10;9.43;;;2.47;;
49384;SDS011;36795;45.028;38.968;2023-02-18T02:46:05;8.48;;;2.80;;
49384;SDS011;36795;45.028;38.968;2023-02-18T02:48:57;13.10;;;3.30;;
49384;SDS011;36795;45.028;38.968;2023-02-18T02:51:46;12.25;;;3.00;;
49384;SDS011;36795;45.028;38.968;2023-02-18T02:54:35;12.25;;;2.75;;
49384;SDS011;36795;45.028;38.968;2023-02-18T03:00:10;13.77;;;4.10;;
49384;SDS011;36795;45.028;38.968;2023-02-18T03:03:03;14.18;;;3.90;;
49384;SDS011;36795;45.028;38.968;2023-02-18T03:14:53;20.10;;;4.32;;
49384;SDS011;36795;45.028;38.968;2023-02-18T03:17:48;15.93;;;4.50;;
49384;SDS011;36795;45.028;38.968;2023-02-18T03:20:38;18.30;;;4.87;;
49384;SDS011;36795;45.028;38.968;2023-02-18T03:23:27;20.65;;;5.82;;
49384;SDS011;36795;45.028;38.968;2023-02-18T03:26:15;20.67;;;5.80;;
49384;SDS011;36795;45.028;38.968;2023-02-18T03:29:04;21.48;;;5.65;;
49384;SDS011;36795;45.028;38.968;2023-02-18T03:31:53;24.60;;;7.10;;
49384;SDS011;36795;45.028;38.968;2023-02-18T03:34:43;25.17;;;8.18;;
49384;SDS011;36795;45.028;38.968;2023-02-18T03:37:31;28.60;;;9.70;;
49384;SDS011;36795;45.028;38.968;2023-02-18T03:40:18;26.15;;;10.15;;
49384;SDS011;36795;45.028;38.968;2023-02-18T03:43:04;29.02;;;10.52;;
49384;SDS011;36795;45.028;38.968;2023-02-18T03:45:51;32.95;;;14.07;;
49384;SDS011;36795;45.028;38.968;2023-02-18T03:48:37;35.88;;;14.75;;
49384;SDS011;36795;45.028;38.968;2023-02-18T03:51:23;31.25;;;12.85;;
49384;SDS011;36795;45.028;38.968;2023-02-18T03:54:10;28.42;;;10.85;;
49384;SDS011;36795;45.028;38.968;2023-02-18T03:57:00;30.02;;;10.40;;
49384;SDS011;36795;45.028;38.968;2023-02-18T03:59:46;32.55;;;12.35;;
49384;SDS011;36795;45.028;38.968;2023-02-18T04:02:32;31.33;;;13.52;;
49384;SDS011;36795;45.028;38.968;2023-02-18T04:05:18;30.00;;;13.38;;
49384;SDS011;36795;45.028;38.968;2023-02-18T04:08:04;35.67;;;16.05;;
49384;SDS011;36795;45.028;38.968;2023-02-18T04:10:51;34.95;;;15.25;;
49384;SDS011;36795;45.028;38.968;2023-02-18T04:13:37;40.58;;;19.05;;
49384;SDS011;36795;45.028;38.968;2023-02-18T04:16:24;45.67;;;20.70;;
49384;SDS011;36795;45.028;38.968;2023-02-18T04:19:10;42.33;;;23.50;;
49384;SDS011;36795;45.028;38.968;2023-02-18T04:21:56;47.45;;;18.60;;
49384;SDS011;36795;45.028;38.968;2023-02-18T04:24:42;42.20;;;21.95;;
49384;SDS011;36795;45.028;38.968;2023-02-18T04:27:28;49.38;;;24.08;;
49384;SDS011;36795;45.028;38.968;2023-02-18T04:30:14;44.67;;;23.05;;
49384;SDS011;36795;45.028;38.968;2023-02-18T04:33:01;46.05;;;23.52;;
49384;SDS011;36795;45.028;38.968;2023-02-18T04:35:47;46.45;;;24.63;;
49384;SDS011;36795;45.028;38.968;2023-02-18T04:38:33;46.22;;;26.40;;
49384;SDS011;36795;45.028;38.968;2023-02-18T04:41:19;48.47;;;23.52;;
49384;SDS011;36795;45.028;38.968;2023-02-18T04:44:08;45.03;;;23.75;;
49384;SDS011;36795;45.028;38.968;2023-02-18T04:46:54;46.60;;;21.85;;
49384;SDS011;36795;45.028;38.968;2023-02-18T04:49:40;51.95;;;27.42;;
49384;SDS011;36795;45.028;38.968;2023-02-18T04:52:26;50.65;;;26.35;;
49384;SDS011;36795;45.028;38.968;2023-02-18T04:55:13;53.30;;;28.08;;
49384;SDS011;36795;45.028;38.968;2023-02-18T04:57:59;50.92;;;26.17;;
49384;SDS011;36795;45.028;38.968;2023-02-18T05:00:46;52.47;;;27.27;;
49384;SDS011;36795;45.028;38.968;2023-02-18T05:03:32;52.88;;;26.85;;
49384;SDS011;36795;45.028;38.968;2023-02-18T05:06:18;52.78;;;27.85;;
49384;SDS011;36795;45.028;38.968;2023-02-18T05:09:05;49.00;;;24.45;;
49384;SDS011;36795;45.028;38.968;2023-02-18T05:11:52;53.92;;;28.95;;
49384;SDS011;36795;45.028;38.968;2023-02-18T05:14:38;52.38;;;27.62;;
49384;SDS011;36795;45.028;38.968;2023-02-18T05:17:25;49.63;;;25.55;;
49384;SDS011;36795;45.028;38.968;2023-02-18T05:20:11;50.83;;;26.08;;
49384;SDS011;36795;45.028;38.968;2023-02-18T05:22:58;52.17;;;27.62;;
49384;SDS011;36795;45.028;38.968;2023-02-18T05:25:44;49.28;;;26.05;;
49384;SDS011;36795;45.028;38.968;2023-02-18T05:28:30;55.03;;;27.50;;
49384;SDS011;36795;45.028;38.968;2023-02-18T05:31:16;49.10;;;24.92;;
49384;SDS011;36795;45.028;38.968;2023-02-18T05:34:03;43.72;;;23.08;;
49384;SDS011;36795;45.028;38.968;2023-02-18T05:36:49;43.78;;;23.05;;
49384;SDS011;36795;45.028;38.968;2023-02-18T05:39:35;51.33;;;25.75;;
49384;SDS011;36795;45.028;38.968;2023-02-18T05:42:21;46.95;;;22.80;;
49384;SDS011;36795;45.028;38.968;2023-02-18T05:45:08;47.45;;;24.77;;
49384;SDS011;36795;45.028;38.968;2023-02-18T05:47:54;48.97;;;24.33;;
49384;SDS011;36795;45.028;38.968;2023-02-18T05:50:40;49.22;;;24.40;;
49384;SDS011;36795;45.028;38.968;2023-02-18T05:53:26;45.15;;;23.20;;
49384;SDS011;36795;45.028;38.968;2023-02-18T05:56:13;47.22;;;23.00;;
49384;SDS011;36795;45.028;38.968;2023-02-18T05:58:59;48.28;;;23.67;;
49384;SDS011;36795;45.028;38.968;2023-02-18T06:01:45;43.05;;;22.83;;
49384;SDS011;36795;45.028;38.968;2023-02-18T06:04:32;46.40;;;22.40;;
49384;SDS011;36795;45.028;38.968;2023-02-18T06:07:18;43.50;;;23.20;;
49384;SDS011;36795;45.028;38.968;2023-02-18T06:10:05;46.00;;;21.80;;
49384;SDS011;36795;45.028;38.968;2023-02-18T06:12:53;45.17;;;21.27;;
49384;SDS011;36795;45.028;38.968;2023-02-18T06:15:39;40.80;;;20.27;;
49384;SDS011;36795;45.028;38.968;2023-02-18T06:18:25;40.00;;;20.15;;
49384;SDS011;36795;45.028;38.968;2023-02-18T06:21:12;45.30;;;22.80;;
49384;SDS011;36795;45.028;38.968;2023-02-18T06:23:58;44.20;;;22.40;;
49384;SDS011;36795;45.028;38.968;2023-02-18T06:26:44;46.92;;;21.58;;
49384;SDS011;36795;45.028;38.968;2023-02-18T06:29:30;46.03;;;22.70;;
49384;SDS011;36795;45.028;38.968;2023-02-18T06:32:17;44.38;;;23.12;;
49384;SDS011;36795;45.028;38.968;2023-02-18T06:35:03;45.75;;;23.25;;
49384;SDS011;36795;45.028;38.968;2023-02-18T06:37:50;48.55;;;24.30;;
49384;SDS011;36795;45.028;38.968;2023-02-18T06:40:35;44.45;;;22.25;;
49384;SDS011;36795;45.028;38.968;2023-02-18T06:43:22;47.15;;;24.08;;
49384;SDS011;36795;45.028;38.968;2023-02-18T06:46:08;46.40;;;22.95;;
49384;SDS011;36795;45.028;38.968;2023-02-18T06:48:54;45.63;;;23.50;;
49384;SDS011;36795;45.028;38.968;2023-02-18T06:51:41;48.22;;;23.45;;
49384;SDS011;36795;45.028;38.968;2023-02-18T06:54:27;42.10;;;21.15;;
49384;SDS011;36795;45.028;38.968;2023-02-18T06:57:13;38.00;;;16.42;;
49384;SDS011;36795;45.028;38.968;2023-02-18T07:00:00;41.50;;;20.37;;
49384;SDS011;36795;45.028;38.968;2023-02-18T07:02:46;41.88;;;21.10;;
49384;SDS011;36795;45.028;38.968;2023-02-18T07:05:32;42.72;;;18.80;;
49384;SDS011;36795;45.028;38.968;2023-02-18T07:08:18;40.95;;;20.23;;
49384;SDS011;36795;45.028;38.968;2023-02-18T07:11:05;39.92;;;20.80;;
49384;SDS011;36795;45.028;38.968;2023-02-18T07:13:52;39.38;;;19.40;;
49384;SDS011;36795;45.028;38.968;2023-02-18T07:16:38;41.13;;;20.48;;
49384;SDS011;36795;45.028;38.968;2023-02-18T07:19:24;41.40;;;18.75;;
49384;SDS011;36795;45.028;38.968;2023-02-18T07:22:10;38.25;;;18.85;;
49384;SDS011;36795;45.028;38.968;2023-02-18T07:24:57;38.53;;;19.00;;
49384;SDS011;36795;45.028;38.968;2023-02-18T07:27:44;37.80;;;18.45;;
49384;SDS011;36795;45.028;38.968;2023-02-18T07:30:30;36.53;;;18.87;;
49384;SDS011;36795;45.028;38.968;2023-02-18T07:33:16;37.47;;;17.02;;
49384;SDS011;36795;45.028;38.968;2023-02-18T07:36:05;34.03;;;17.45;;
49384;SDS011;36795;45.028;38.968;2023-02-18T07:38:51;37.20;;;18.25;;
49384;SDS011;36795;45.028;38.968;2023-02-18T07:41:38;35.78;;;16.17;;
49384;SDS011;36795;45.028;38.968;2023-02-18T07:44:29;34.90;;;16.85;;
49384;SDS011;36795;45.028;38.968;2023-02-18T07:47:16;34.67;;;15.90;;
49384;SDS011;36795;45.028;38.968;2023-02-18T07:50:08;35.58;;;16.37;;
49384;SDS011;36795;45.028;38.968;2023-02-18T07:52:54;33.42;;;16.87;;
49384;SDS011;36795;45.028;38.968;2023-02-18T07:55:41;36.25;;;16.77;;
49384;SDS011;36795;45.028;38.968;2023-02-18T07:58:34;33.67;;;16.40;;
49384;SDS011;36795;45.028;38.968;2023-02-18T08:01:21;33.97;;;16.08;;
49384;SDS011;36795;45.028;38.968;2023-02-18T08:04:08;31.73;;;15.20;;
49384;SDS011;36795;45.028;38.968;2023-02-18T08:06:54;31.33;;;15.80;;
49384;SDS011;36795;45.028;38.968;2023-02-18T08:09:40;34.08;;;16.92;;
49384;SDS011;36795;45.028;38.968;2023-02-18T08:12:26;30.62;;;14.40;;
49384;SDS011;36795;45.028;38.968;2023-02-18T08:15:13;31.67;;;15.45;;
49384;SDS011;36795;45.028;38.968;2023-02-18T08:17:59;31.55;;;15.10;;
49384;SDS011;36795;45.028;38.968;2023-02-18T08:20:46;31.20;;;13.45;;
49384;SDS011;36795;45.028;38.968;2023-02-18T08:23:32;31.52;;;15.38;;
49384;SDS011;36795;45.028;38.968;2023-02-18T08:26:19;32.17;;;14.50;;
49384;SDS011;36795;45.028;38.968;2023-02-18T08:29:05;33.78;;;15.90;;
49384;SDS011;36795;45.028;38.968;2023-02-18T08:31:51;30.45;;;13.62;;
49384;SDS011;36795;45.028;38.968;2023-02-18T08:34:38;33.05;;;15.00;;
49384;SDS011;36795;45.028;38.968;2023-02-18T08:37:25;30.92;;;15.15;;
49384;SDS011;36795;45.028;38.968;2023-02-18T08:40:13;30.92;;;13.95;;
49384;SDS011;36795;45.028;38.968;2023-02-18T08:42:59;33.28;;;14.77;;
49384;SDS011;36795;45.028;38.968;2023-02-18T08:45:49;32.97;;;13.85;;
49384;SDS011;36795;45.028;38.968;2023-02-18T08:48:35;32.30;;;15.35;;
49384;SDS011;36795;45.028;38.968;2023-02-18T08:51:21;30.27;;;12.77;;
49384;SDS011;36795;45.028;38.968;2023-02-18T08:54:08;29.90;;;15.10;;
49384;SDS011;36795;45.028;38.968;2023-02-18T08:56:54;30.58;;;14.90;;
49384;SDS011;36795;45.028;38.968;2023-02-18T08:59:44;30.02;;;14.32;;
49384;SDS011;36795;45.028;38.968;2023-02-18T09:02:30;40.75;;;12.68;;
49384;SDS011;36795;45.028;38.968;2023-02-18T09:05:17;31.33;;;14.15;;
49384;SDS011;36795;45.028;38.968;2023-02-18T09:08:03;35.65;;;13.40;;
49384;SDS011;36795;45.028;38.968;2023-02-18T09:10:53;35.70;;;13.68;;
49384;SDS011;36795;45.028;38.968;2023-02-18T09:13:40;34.30;;;16.35;;
49384;SDS011;36795;45.028;38.968;2023-02-18T09:16:27;40.50;;;19.27;;
49384;SDS011;36795;45.028;38.968;2023-02-18T09:19:16;35.35;;;15.82;;
49384;SDS011;36795;45.028;38.968;2023-02-18T09:22:03;39.45;;;17.23;;
49384;SDS011;36795;45.028;38.968;2023-02-18T09:24:48;38.08;;;16.40;;
49384;SDS011;36795;45.028;38.968;2023-02-18T09:27:35;39.40;;;15.90;;
49384;SDS011;36795;45.028;38.968;2023-02-18T09:30:21;35.83;;;16.25;;
49384;SDS011;36795;45.028;38.968;2023-02-18T09:33:07;34.97;;;15.30;;
49384;SDS011;36795;45.028;38.968;2023-02-18T09:35:53;38.72;;;17.08;;
49384;SDS011;36795;45.028;38.968;2023-02-18T09:38:40;35.88;;;16.50;;
49384;SDS011;36795;45.028;38.968;2023-02-18T09:44:20;37.50;;;18.25;;
49384;SDS011;36795;45.028;38.968;2023-02-18T09:50:10;35.58;;;16.27;;
49384;SDS011;36795;45.028;38.968;2023-02-18T09:52:59;41.55;;;17.33;;
49384;SDS011;36795;45.028;38.968;2023-02-18T09:55:47;36.65;;;17.35;;
49384;SDS011;36795;45.028;38.968;2023-02-18T09:58:33;35.90;;;16.58;;
49384;SDS011;36795;45.028;38.968;2023-02-18T10:01:33;35.40;;;17.73;;
49384;SDS011;36795;45.028;38.968;2023-02-18T10:04:27;44.17;;;19.17;;
49384;SDS011;36795;45.028;38.968;2023-02-18T10:07:25;35.97;;;17.17;;
49384;SDS011;36795;45.028;38.968;2023-02-18T10:10:29;32.85;;;14.63;;
49384;SDS011;36795;45.028;38.968;2023-02-18T10:13:21;35.65;;;16.73;;
49384;SDS011;36795;45.028;38.968;2023-02-18T10:16:08;39.53;;;17.12;;
49384;SDS011;36795;45.028;38.968;2023-02-18T10:19:05;32.13;;;15.77;;
49384;SDS011;36795;45.028;38.968;2023-02-18T10:21:54;36.28;;;16.83;;
49384;SDS011;36795;45.028;38.968;2023-02-18T10:24:49;35.05;;;16.40;;
49384;SDS011;36795;45.028;38.968;2023-02-18T10:27:36;34.65;;;16.95;;
49384;SDS011;36795;45.028;38.968;2023-02-18T10:30:26;34.20;;;16.25;;
49384;SDS011;36795;45.028;38.968;2023-02-18T10:33:35;35.67;;;16.58;;
49384;SDS011;36795;45.028;38.968;2023-02-18T10:45:07;33.03;;;12.80;;
49384;SDS011;36795;45.028;38.968;2023-02-18T10:50:47;31.67;;;14.63;;
49384;SDS011;36795;45.028;38.968;2023-02-18T10:53:35;33.85;;;14.60;;
49384;SDS011;36795;45.028;38.968;2023-02-18T10:56:41;37.30;;;17.60;;
49384;SDS011;36795;45.028;38.968;2023-02-18T10:59:31;38.05;;;18.10;;
49384;SDS011;36795;45.028;38.968;2023-02-18T11:02:17;35.67;;;17.33;;
49384;SDS011;36795;45.028;38.968;2023-02-18T11:05:25;35.67;;;18.48;;
49384;SDS011;36795;45.028;38.968;2023-02-18T11:08:13;37.40;;;18.98;;
49384;SDS011;36795;45.028;38.968;2023-02-18T11:11:00;36.58;;;17.30;;
49384;SDS011;36795;45.028;38.968;2023-02-18T11:13:55;38.45;;;17.65;;
49384;SDS011;36795;45.028;38.968;2023-02-18T11:16:43;34.00;;;15.98;;
49384;SDS011;36795;45.028;38.968;2023-02-18T11:19:37;33.33;;;17.37;;
49384;SDS011;36795;45.028;38.968;2023-02-18T11:22:27;34.33;;;14.73;;
49384;SDS011;36795;45.028;38.968;2023-02-18T11:25:33;32.40;;;12.77;;
49384;SDS011;36795;45.028;38.968;2023-02-18T11:31:07;31.62;;;12.90;;
49384;SDS011;36795;45.028;38.968;2023-02-18T11:33:54;31.62;;;15.60;;
49384;SDS011;36795;45.028;38.968;2023-02-18T11:36:41;30.92;;;12.80;;
49384;SDS011;36795;45.028;38.968;2023-02-18T11:39:27;31.52;;;11.30;;
49384;SDS011;36795;45.028;38.968;2023-02-18T11:42:15;28.60;;;11.02;;
49384;SDS011;36795;45.028;38.968;2023-02-18T11:45:02;28.52;;;10.75;;
49384;SDS011;36795;45.028;38.968;2023-02-18T11:47:48;26.10;;;10.73;;
49384;SDS011;36795;45.028;38.968;2023-02-18T11:56:16;26.45;;;10.88;;
49384;SDS011;36795;45.028;38.968;2023-02-18T11:59:04;25.37;;;9.77;;
49384;SDS011;36795;45.028;38.968;2023-02-18T12:02:01;25.20;;;10.00;;
49384;SDS011;36795;45.028;38.968;2023-02-18T12:04:55;27.67;;;9.88;;
49384;SDS011;36795;45.028;38.968;2023-02-18T12:07:45;29.00;;;12.82;;
49384;SDS011;36795;45.028;38.968;2023-02-18T12:23:01;23.00;;;8.07;;
49384;SDS011;36795;45.028;38.968;2023-02-18T12:31:50;22.17;;;5.60;;
49384;SDS011;36795;45.028;38.968;2023-02-18T12:55:52;17.70;;;4.85;;
49384;SDS011;36795;45.028;38.968;2023-02-18T12:58:49;15.00;;;3.62;;
49384;SDS011;36795;45.028;38.968;2023-02-18T13:01:57;18.77;;;5.15;;
49384;SDS011;36795;45.028;38.968;2023-02-18T13:07:47;12.13;;;3.45;;
49384;SDS011;36795;45.028;38.968;2023-02-18T13:10:51;15.50;;;3.95;;
49384;SDS011;36795;45.028;38.968;2023-02-18T13:13:40;13.05;;;3.42;;
49384;SDS011;36795;45.028;38.968;2023-02-18T13:16:29;12.07;;;3.22;;
49384;SDS011;36795;45.028;38.968;2023-02-18T13:22:06;12.63;;;3.45;;
49384;SDS011;36795;45.028;38.968;2023-02-18T13:24:55;12.40;;;3.83;;
49384;SDS011;36795;45.028;38.968;2023-02-18T13:36:37;17.40;;;4.70;;
49384;SDS011;36795;45.028;38.968;2023-02-18T13:39:27;24.17;;;4.45;;
49384;SDS011;36795;45.028;38.968;2023-02-18T13:45:04;22.13;;;5.32;;
49384;SDS011;36795;45.028;38.968;2023-02-18T13:47:51;20.80;;;5.87;;
49384;SDS011;36795;45.028;38.968;2023-02-18T13:50:38;25.15;;;6.90;;
49384;SDS011;36795;45.028;38.968;2023-02-18T13:53:25;24.90;;;7.53;;
49384;SDS011;36795;45.028;38.968;2023-02-18T13:56:27;17.90;;;4.95;;
49384;SDS011;36795;45.028;38.968;2023-02-18T13:59:18;24.37;;;7.45;;
49384;SDS011;36795;45.028;38.968;2023-02-18T14:02:07;28.30;;;8.13;;
49384;SDS011;36795;45.028;38.968;2023-02-18T14:05:20;23.87;;;8.00;;
49384;SDS011;36795;45.028;38.968;2023-02-18T14:22:51;24.45;;;8.85;;
49384;SDS011;36795;45.028;38.968;2023-02-18T14:25:38;21.70;;;7.20;;
49384;SDS011;36795;45.028;38.968;2023-02-18T14:31:21;26.70;;;10.05;;
49384;SDS011;36795;45.028;38.968;2023-02-18T14:37:33;24.70;;;9.55;;
49384;SDS011;36795;45.028;38.968;2023-02-18T14:43:32;25.95;;;9.82;;
49384;SDS011;36795;45.028;38.968;2023-02-18T14:49:28;23.50;;;8.23;;
49384;SDS011;36795;45.028;38.968;2023-02-18T14:52:21;26.52;;;9.43;;
49384;SDS011;36795;45.028;38.968;2023-02-18T14:55:30;26.17;;;8.82;;
49384;SDS011;36795;45.028;38.968;2023-02-18T14:58:27;25.60;;;10.00;;
49384;SDS011;36795;45.028;38.968;2023-02-18T15:01:25;20.30;;;7.07;;
49384;SDS011;36795;45.028;38.968;2023-02-18T15:04:15;24.30;;;8.32;;
49384;SDS011;36795;45.028;38.968;2023-02-18T15:07:02;27.08;;;8.90;;
49384;SDS011;36795;45.028;38.968;2023-02-18T15:09:53;20.85;;;7.10;;
49384;SDS011;36795;45.028;38.968;2023-02-18T15:12:39;22.98;;;9.23;;
49384;SDS011;36795;45.028;38.968;2023-02-18T15:15:25;21.87;;;7.62;;
49384;SDS011;36795;45.028;38.968;2023-02-18T15:18:23;26.85;;;9.48;;
49384;SDS011;36795;45.028;38.968;2023-02-18T15:21:17;24.30;;;9.75;;
49384;SDS011;36795;45.028;38.968;2023-02-18T15:24:07;25.33;;;9.57;;
49384;SDS011;36795;45.028;38.968;2023-02-18T15:26:55;24.90;;;10.27;;
49384;SDS011;36795;45.028;38.968;2023-02-18T15:29:51;24.83;;;9.52;;
49384;SDS011;36795;45.028;38.968;2023-02-18T15:32:43;24.65;;;8.93;;
49384;SDS011;36795;45.028;38.968;2023-02-18T15:35:30;25.08;;;8.43;;
49384;SDS011;36795;45.028;38.968;2023-02-18T15:38:18;24.92;;;9.20;;
49384;SDS011;36795;45.028;38.968;2023-02-18T15:41:05;25.33;;;9.50;;
49384;SDS011;36795;45.028;38.968;2023-02-18T15:43:58;26.45;;;9.95;;
49384;SDS011;36795;45.028;38.968;2023-02-18T15:46:46;23.38;;;9.52;;
49384;SDS011;36795;45.028;38.968;2023-02-18T15:49:33;26.08;;;10.82;;
49384;SDS011;36795;45.028;38.968;2023-02-18T15:52:25;25.60;;;10.02;;
49384;SDS011;36795;45.028;38.968;2023-02-18T15:55:31;24.03;;;10.27;;
49384;SDS011;36795;45.028;38.968;2023-02-18T15:58:29;32.15;;;15.32;;
49384;SDS011;36795;45.028;38.968;2023-02-18T16:01:26;24.67;;;10.65;;
49384;SDS011;36795;45.028;38.968;2023-02-18T16:04:14;24.63;;;9.98;;
49384;SDS011;36795;45.028;38.968;2023-02-18T16:07:02;24.73;;;10.95;;
49384;SDS011;36795;45.028;38.968;2023-02-18T16:09:51;23.05;;;9.10;;
49384;SDS011;36795;45.028;38.968;2023-02-18T16:12:44;22.85;;;9.13;;
49384;SDS011;36795;45.028;38.968;2023-02-18T16:15:37;20.48;;;7.15;;
49384;SDS011;36795;45.028;38.968;2023-02-18T16:18:34;23.52;;;7.55;;
49384;SDS011;36795;45.028;38.968;2023-02-18T16:21:43;19.95;;;5.87;;
49384;SDS011;36795;45.028;38.968;2023-02-18T16:24:30;19.48;;;6.78;;
49384;SDS011;36795;45.028;38.968;2023-02-18T16:27:18;19.12;;;6.28;;
49384;SDS011;36795;45.028;38.968;2023-02-18T16:30:24;18.67;;;5.53;;
49384;SDS011;36795;45.028;38.968;2023-02-18T16:33:12;17.48;;;5.62;;
49384;SDS011;36795;45.028;38.968;2023-02-18T16:35:59;14.98;;;4.10;;
49384;SDS011;36795;45.028;38.968;2023-02-18T16:38:46;18.52;;;5.20;;
49384;SDS011;36795;45.028;38.968;2023-02-18T16:41:33;14.02;;;4.75;;
49384;SDS011;36795;45.028;38.968;2023-02-18T16:44:19;14.00;;;4.28;;
49384;SDS011;36795;45.028;38.968;2023-02-18T16:47:06;13.73;;;3.65;;
49384;SDS011;36795;45.028;38.968;2023-02-18T16:49:56;12.35;;;3.62;;
49384;SDS011;36795;45.028;38.968;2023-02-18T16:52:42;12.07;;;3.85;;
49384;SDS011;36795;45.028;38.968;2023-02-18T16:55:29;10.65;;;3.12;;
49384;SDS011;36795;45.028;38.968;2023-02-18T16:58:15;12.32;;;3.30;;
49384;SDS011;36795;45.028;38.968;2023-02-18T17:01:03;10.20;;;3.08;;
49384;SDS011;36795;45.028;38.968;2023-02-18T17:03:50;11.73;;;3.45;;
49384;SDS011;36795;45.028;38.968;2023-02-18T17:06:37;12.40;;;3.15;;
49384;SDS011;36795;45.028;38.968;2023-02-18T17:09:23;13.05;;;3.20;;
49384;SDS011;36795;45.028;38.968;2023-02-18T17:12:13;8.85;;;2.37;;
49384;SDS011;36795;45.028;38.968;2023-02-18T17:14:59;12.02;;;2.62;;
49384;SDS011;36795;45.028;38.968;2023-02-18T17:17:46;10.65;;;2.90;;
49384;SDS011;36795;45.028;38.968;2023-02-18T17:20:32;8.40;;;2.75;;
49384;SDS011;36795;45.028;38.968;2023-02-18T17:23:20;13.50;;;2.95;;
49384;SDS011;36795;45.028;38.968;2023-02-18T17:26:26;14.32;;;3.22;;
49384;SDS011;36795;45.028;38.968;2023-02-18T17:29:18;11.88;;;3.12;;
49384;SDS011;36795;45.028;38.968;2023-02-18T17:32:05;8.65;;;2.60;;
49384;SDS011;36795;45.028;38.968;2023-02-18T17:34:53;7.97;;;2.70;;
49384;SDS011;36795;45.028;38.968;2023-02-18T17:37:39;7.70;;;2.40;;
49384;SDS011;36795;45.028;38.968;2023-02-18T17:40:26;7.18;;;2.28;;
49384;SDS011;36795;45.028;38.968;2023-02-18T17:43:15;9.20;;;2.60;;
49384;SDS011;36795;45.028;38.968;2023-02-18T17:46:02;10.20;;;2.60;;
49384;SDS011;36795;45.028;38.968;2023-02-18T17:48:49;5.40;;;2.05;;
49384;SDS011;36795;45.028;38.968;2023-02-18T17:51:36;9.80;;;2.40;;
49384;SDS011;36795;45.028;38.968;2023-02-18T17:54:26;9.95;;;2.53;;
49384;SDS011;36795;45.028;38.968;2023-02-18T17:57:14;10.27;;;3.10;;
49384;SDS011;36795;45.028;38.968;2023-02-18T18:00:01;10.55;;;3.17;;
49384;SDS011;36795;45.028;38.968;2023-02-18T18:02:52;14.38;;;3.90;;
49384;SDS011;36795;45.028;38.968;2023-02-18T18:05:41;17.48;;;4.93;;
49384;SDS011;36795;45.028;38.968;2023-02-18T18:08:28;16.02;;;4.28;;
49384;SDS011;36795;45.028;38.968;2023-02-18T18:11:18;16.50;;;4.47;;
49384;SDS011;36795;45.028;38.968;2023-02-18T18:14:05;11.95;;;3.58;;
49384;SDS011;36795;45.028;38.968;2023-02-18T18:16:51;13.02;;;3.58;;
49384;SDS011;36795;45.028;38.968;2023-02-18T18:19:38;15.32;;;3.97;;
49384;SDS011;36795;45.028;38.968;2023-02-18T18:22:25;16.58;;;4.57;;
49384;SDS011;36795;45.028;38.968;2023-02-18T18:28:05;19.17;;;5.57;;
49384;SDS011;36795;45.028;38.968;2023-02-18T18:30:55;19.05;;;5.95;;
49384;SDS011;36795;45.028;38.968;2023-02-18T18:33:43;19.52;;;6.25;;
49384;SDS011;36795;45.028;38.968;2023-02-18T18:36:34;20.37;;;6.40;;
49384;SDS011;36795;45.028;38.968;2023-02-18T18:39:21;20.55;;;6.87;;
49384;SDS011;36795;45.028;38.968;2023-02-18T18:42:07;20.25;;;6.90;;
49384;SDS011;36795;45.028;38.968;2023-02-18T18:44:57;22.52;;;6.90;;
49384;SDS011;36795;45.028;38.968;2023-02-18T18:47:45;21.80;;;6.57;;
49384;SDS011;36795;45.028;38.968;2023-02-18T18:50:35;23.80;;;8.35;;
49384;SDS011;36795;45.028;38.968;2023-02-18T18:53:26;20.17;;;6.57;;
49384;SDS011;36795;45.028;38.968;2023-02-18T18:56:14;19.87;;;6.35;;
49384;SDS011;36795;45.028;38.968;2023-02-18T18:59:05;21.80;;;7.37;;
49384;SDS011;36795;45.028;38.968;2023-02-18T19:01:55;19.73;;;6.68;;